Terminal Aerodrome Forecast
Issued by NWS Shreveport, LA

Home | Current Version | Previous Version | Text Only | Print | Product List | Glossary On
Versions: 1 2 3 4 5 6 7 8 9 10 11 12 13 14 15 16 17
000
FTUS44 KSHV 180536
TAFMLU
TAF
KMLU 180536Z 1806/1906 05004KT P6SM SCT040 SCT140 OVC250
     FM181400 04005KT P6SM VCTS SCT015CB BKN100 OVC250
      TEMPO 1814/1818 VRB12G20KT 2SM TSRA BR OVC015CB
     FM181800 VRB06KT 2SM TSRA BR OVC015CB
     FM190000 VRB06KT P6SM VCTS OVC015CB=

USA.gov is the U.S. government's official web portal to all federal, state and local government web resources and services.